Time,TemperatureF,DewpointF,PressureIn,WindDirection,WindDirectionDegrees,WindSpeedMPH,WindSpeedGustMPH,Humidity,HourlyPrecipIn,Conditions,Clouds,dailyrainin,SoftwareType,DateUTC
2013-02-25 00:08:00,26.0,19.0,30.09,NNE,25,0.0,0.0,76,0.00,,,0.00,weatherlink.com 1.10,2013-02-25 07:08:00,
2013-02-25 00:23:00,25.9,20.0,30.09,NNE,25,0.0,0.0,77,0.00,,,0.00,weatherlink.com 1.10,2013-02-25 07:23:00,
2013-02-25 00:38:00,26.3,20.0,30.09,NNE,25,0.0,0.0,76,0.00,,,0.00,weatherlink.com 1.10,2013-02-25 07:38:00,
2013-02-25 00:53:00,26.7,21.0,30.08,NNE,25,0.0,0.0,80,0.00,,,0.00,weatherlink.com 1.10,2013-02-25 07:53:00,
2013-02-25 01:08:00,26.8,21.0,30.08,NNE,25,0.0,0.0,78,0.00,,,0.00,weatherlink.com 1.10,2013-02-25 08:08:00,
2013-02-25 01:23:00,26.8,21.0,30.08,NNE,25,0.0,0.0,78,0.00,,,0.00,weatherlink.com 1.10,2013-02-25 08:23:00,
2013-02-25 01:38:00,26.9,21.0,30.07,NNE,25,0.0,0.0,79,0.00,,,0.00,weatherlink.com 1.10,2013-02-25 08:38:00,
2013-02-25 01:53:00,27.0,22.0,30.06,NNE,25,0.0,0.0,80,0.00,,,0.00,weatherlink.com 1.10,2013-02-25 08:53:00,
2013-02-25 02:08:00,27.0,22.0,30.06,NNE,25,0.0,0.0,80,0.00,,,0.00,weatherlink.com 1.10,2013-02-25 09:08:00,
2013-02-25 02:23:00,27.2,22.0,30.06,NNE,25,0.0,0.0,80,0.00,,,0.00,weatherlink.com 1.10,2013-02-25 09:23:00,
2013-02-25 02:38:00,27.3,22.0,30.05,NNE,25,0.0,0.0,81,0.00,,,0.00,weatherlink.com 1.10,2013-02-25 09:38:00,
2013-02-25 02:53:00,27.4,22.0,30.04,NNE,26,0.0,1.0,80,0.00,,,0.00,weatherlink.com 1.10,2013-02-25 09:53:00,
2013-02-25 03:08:00,27.3,22.0,30.03,NNE,26,0.0,0.0,81,0.00,,,0.00,weatherlink.com 1.10,2013-02-25 10:08:00,
2013-02-25 03:23:00,27.0,22.0,30.03,NNE,26,0.0,0.0,82,0.00,,,0.00,weatherlink.com 1.10,2013-02-25 10:23:00,
2013-02-25 03:38:00,26.5,21.0,30.02,NNE,26,0.0,0.0,81,0.00,,,0.00,weatherlink.com 1.10,2013-02-25 10:38:00,
2013-02-25 03:53:00,26.3,21.0,30.01,SE,133,0.0,3.0,79,0.00,,,0.00,weatherlink.com 1.10,2013-02-25 10:53:00,
2013-02-25 04:08:00,26.5,20.0,30.01,SE,128,1.0,4.0,77,0.00,,,0.00,weatherlink.com 1.10,2013-02-25 11:08:00,
2013-02-25 04:23:00,26.3,20.0,30.00,SE,128,0.0,3.0,77,0.00,,,0.00,weatherlink.com 1.10,2013-02-25 11:23:00,
2013-02-25 04:38:00,26.0,20.0,30.00,SE,128,0.0,1.0,78,0.00,,,0.00,weatherlink.com 1.10,2013-02-25 11:38:00,
2013-02-25 04:53:00,26.1,20.0,29.99,SE,128,0.0,2.0,79,0.00,,,0.00,weatherlink.com 1.10,2013-02-25 11:53:00,
2013-02-25 05:08:00,26.1,20.0,29.99,SE,128,0.0,1.0,78,0.00,,,0.00,weatherlink.com 1.10,2013-02-25 12:08:00,
2013-02-25 05:23:00,25.9,20.0,29.98,SE,128,0.0,1.0,79,0.00,,,0.00,weatherlink.com 1.10,2013-02-25 12:23:00,
2013-02-25 05:38:00,25.6,20.0,29.97,NE,34,2.0,2.0,80,0.00,,,0.00,weatherlink.com 1.10,2013-02-25 12:38:00,
2013-02-25 05:53:00,25.7,20.0,29.97,NE,51,1.0,3.0,80,0.00,,,0.00,weatherlink.com 1.10,2013-02-25 12:53:00,
2013-02-25 06:08:00,-999.0,-99.9,29.96,North,-999,-999.0,-999.0,-999,0.00,,,0.00,weatherlink.com 1.10,2013-02-25 13:08:00,
2013-02-25 06:23:00,-999.0,-99.9,29.94,North,-999,-999.0,-999.0,-999,0.00,,,0.00,weatherlink.com 1.10,2013-02-25 13:23:00,
2013-02-25 06:39:00,-999.0,-99.9,29.94,North,-999,-999.0,-999.0,-999,0.00,,,0.00,weatherlink.com 1.10,2013-02-25 13:39:00,
2013-02-25 06:54:00,-999.0,-99.9,29.93,North,-999,-999.0,-999.0,-999,0.00,,,0.00,weatherlink.com 1.10,2013-02-25 13:54:00,
2013-02-25 07:09:00,-999.0,-99.9,29.91,North,-999,-999.0,-999.0,-999,0.00,,,0.00,weatherlink.com 1.10,2013-02-25 14:09:00,
2013-02-25 07:24:00,-999.0,-99.9,29.90,North,-999,-999.0,-999.0,-999,0.00,,,0.00,weatherlink.com 1.10,2013-02-25 14:24:00,
2013-02-25 07:39:00,-999.0,-99.9,29.89,North,-999,-999.0,-999.0,-999,0.00,,,0.00,weatherlink.com 1.10,2013-02-25 14:39:00,
2013-02-25 07:54:00,-999.0,-99.9,29.90,North,-999,-999.0,-999.0,-999,0.00,,,0.00,weatherlink.com 1.10,2013-02-25 14:54:00,
2013-02-25 08:09:00,-999.0,-99.9,29.90,North,-999,-999.0,-999.0,-999,0.00,,,0.00,weatherlink.com 1.10,2013-02-25 15:09:00,
2013-02-25 08:24:00,-999.0,-99.9,29.89,North,-999,-999.0,-999.0,-999,0.00,,,0.00,weatherlink.com 1.10,2013-02-25 15:24:00,
2013-02-25 08:39:00,-999.0,-99.9,29.88,North,-999,-999.0,-999.0,-999,0.00,,,0.00,weatherlink.com 1.10,2013-02-25 15:39:00,
2013-02-25 08:54:00,-999.0,-99.9,29.88,North,-999,-999.0,-999.0,-999,0.00,,,0.00,weatherlink.com 1.10,2013-02-25 15:54:00,
2013-02-25 09:09:00,-999.0,-99.9,29.88,North,-999,-999.0,-999.0,-999,0.00,,,0.00,weatherlink.com 1.10,2013-02-25 16:09:00,
2013-02-25 09:24:00,-999.0,-99.9,29.88,North,-999,-999.0,-999.0,-999,0.00,,,0.00,weatherlink.com 1.10,2013-02-25 16:24:00,
2013-02-25 09:39:00,-999.0,-99.9,29.87,North,-999,-999.0,-999.0,-999,0.00,,,0.00,weatherlink.com 1.10,2013-02-25 16:39:00,
2013-02-25 09:54:00,-999.0,-99.9,29.87,North,-999,-999.0,-999.0,-999,0.00,,,0.00,weatherlink.com 1.10,2013-02-25 16:54:00,
2013-02-25 10:10:00,-999.0,-99.9,29.86,North,-999,-999.0,-999.0,-999,0.00,,,0.00,weatherlink.com 1.10,2013-02-25 17:10:00,
2013-02-25 10:25:00,-999.0,-99.9,29.86,North,-999,-999.0,-999.0,-999,0.00,,,0.00,weatherlink.com 1.10,2013-02-25 17:25:00,
2013-02-25 10:40:00,-999.0,-99.9,29.86,North,-999,-999.0,-999.0,-999,0.00,,,0.00,weatherlink.com 1.10,2013-02-25 17:40:00,
2013-02-25 10:55:00,-999.0,-99.9,29.86,North,-999,-999.0,-999.0,-999,0.00,,,0.00,weatherlink.com 1.10,2013-02-25 17:55:00,
2013-02-25 11:10:00,35.1,20.0,29.86,WSW,239,1.0,4.0,55,0.00,,,0.00,weatherlink.com 1.10,2013-02-25 18:10:00,
2013-02-25 11:25:00,35.5,19.0,29.85,South,180,2.0,4.0,51,0.00,,,0.00,weatherlink.com 1.10,2013-02-25 18:25:00,
2013-02-25 11:40:00,36.0,19.0,29.86,SW,223,0.0,6.0,51,0.00,,,0.00,weatherlink.com 1.10,2013-02-25 18:40:00,
2013-02-25 11:55:00,36.5,20.0,29.86,SSW,200,1.0,5.0,51,0.00,,,0.00,weatherlink.com 1.10,2013-02-25 18:55:00,
2013-02-25 12:10:00,36.8,22.0,29.86,South,178,4.0,8.0,56,0.00,,,0.00,weatherlink.com 1.10,2013-02-25 19:10:00,
2013-02-25 12:25:00,37.2,22.0,29.87,SSE,150,4.0,7.0,55,0.00,,,0.00,weatherlink.com 1.10,2013-02-25 19:25:00,
2013-02-25 12:40:00,37.3,23.0,29.87,South,175,5.0,7.0,57,0.00,,,0.00,weatherlink.com 1.10,2013-02-25 19:40:00,
2013-02-25 12:55:00,38.2,24.0,29.87,SSW,194,5.0,7.0,58,0.00,,,0.00,weatherlink.com 1.10,2013-02-25 19:55:00,
2013-02-25 13:10:00,38.4,26.0,29.86,SSE,163,5.0,13.0,62,0.00,,,0.00,weatherlink.com 1.10,2013-02-25 20:10:00,
2013-02-25 13:25:00,38.7,29.0,29.86,SW,235,7.0,10.0,67,0.00,,,0.00,weatherlink.com 1.10,2013-02-25 20:25:00,
2013-02-25 13:40:00,38.9,28.0,29.86,South,189,6.0,11.0,66,0.00,,,0.00,weatherlink.com 1.10,2013-02-25 20:40:00,
2013-02-25 13:55:00,39.5,26.0,29.86,South,175,3.0,9.0,59,0.00,,,0.00,weatherlink.com 1.10,2013-02-25 20:55:00,
2013-02-25 14:10:00,40.3,25.0,29.86,SSW,207,10.0,10.0,55,0.00,,,0.00,weatherlink.com 1.10,2013-02-25 21:10:00,
2013-02-25 14:25:00,40.1,24.0,29.86,SSW,193,6.0,11.0,52,0.00,,,0.00,weatherlink.com 1.10,2013-02-25 21:25:00,
2013-02-25 14:40:00,40.2,25.0,29.86,SSW,197,3.0,8.0,55,0.00,,,0.00,weatherlink.com 1.10,2013-02-25 21:40:00,
2013-02-25 14:55:00,39.8,25.0,29.86,South,180,1.0,10.0,56,0.00,,,0.00,weatherlink.com 1.10,2013-02-25 21:55:00,
2013-02-25 15:10:00,39.7,25.0,29.87,South,190,1.0,6.0,55,0.00,,,0.00,weatherlink.com 1.10,2013-02-25 22:10:00,
2013-02-25 15:25:00,39.8,26.0,29.87,South,187,5.0,7.0,57,0.00,,,0.00,weatherlink.com 1.10,2013-02-25 22:25:00,
2013-02-25 15:40:00,39.8,25.0,29.87,NE,43,4.0,7.0,55,0.00,,,0.00,weatherlink.com 1.10,2013-02-25 22:40:00,
2013-02-25 15:55:00,39.9,24.0,29.87,ESE,107,1.0,5.0,54,0.00,,,0.00,weatherlink.com 1.10,2013-02-25 22:55:00,
2013-02-25 16:10:00,40.4,22.0,29.87,South,185,4.0,8.0,49,0.00,,,0.00,weatherlink.com 1.10,2013-02-25 23:10:00,
2013-02-25 16:25:00,40.5,22.0,29.87,SW,214,0.0,3.0,47,0.00,,,0.00,weatherlink.com 1.10,2013-02-25 23:25:00,
2013-02-25 16:40:00,40.3,19.0,29.87,WNW,300,2.0,6.0,43,0.00,,,0.00,weatherlink.com 1.10,2013-02-25 23:40:00,
2013-02-25 16:55:00,39.7,18.0,29.87,NW,311,6.0,16.0,42,0.00,,,0.00,weatherlink.com 1.10,2013-02-25 23:55:00,
2013-02-25 17:10:00,39.5,18.0,29.88,WNW,296,5.0,16.0,42,0.00,,,0.00,weatherlink.com 1.10,2013-02-26 00:10:00,
2013-02-25 17:25:00,39.5,17.0,29.88,WSW,250,6.0,12.0,41,0.00,,,0.00,weatherlink.com 1.10,2013-02-26 00:25:00,
2013-02-25 17:40:00,38.6,21.0,29.88,South,170,3.0,9.0,50,0.00,,,0.00,weatherlink.com 1.10,2013-02-26 00:40:00,
2013-02-25 17:55:00,37.3,23.0,29.88,ESE,111,3.0,7.0,56,0.00,,,0.00,weatherlink.com 1.10,2013-02-26 00:55:00,
2013-02-25 18:10:00,36.1,23.0,29.88,ESE,113,5.0,8.0,60,0.00,,,0.00,weatherlink.com 1.10,2013-02-26 01:10:00,
2013-02-25 18:25:00,35.4,24.0,29.89,ESE,117,2.0,9.0,63,0.00,,,0.00,weatherlink.com 1.10,2013-02-26 01:25:00,
2013-02-25 18:40:00,35.4,24.0,29.89,ESE,107,5.0,8.0,63,0.00,,,0.00,weatherlink.com 1.10,2013-02-26 01:40:00,
2013-02-25 18:55:00,35.5,24.0,29.91,ESE,116,7.0,10.0,64,0.00,,,0.00,weatherlink.com 1.10,2013-02-26 01:55:00,
2013-02-25 19:10:00,35.3,24.0,29.90,SE,140,5.0,12.0,63,0.00,,,0.00,weatherlink.com 1.10,2013-02-26 02:10:00,
2013-02-25 19:26:00,34.4,23.0,29.91,SSE,148,0.0,2.0,64,0.00,,,0.00,weatherlink.com 1.10,2013-02-26 02:26:00,
2013-02-25 19:41:00,34.2,23.0,29.92,East,82,5.0,5.0,65,0.00,,,0.00,weatherlink.com 1.10,2013-02-26 02:41:00,
2013-02-25 19:56:00,34.2,24.0,29.93,SSW,211,0.0,8.0,66,0.00,,,0.00,weatherlink.com 1.10,2013-02-26 02:56:00,
2013-02-25 20:11:00,34.6,24.0,29.93,SE,138,5.0,11.0,66,0.00,,,0.00,weatherlink.com 1.10,2013-02-26 03:11:00,
2013-02-25 20:26:00,34.3,25.0,29.93,SE,134,6.0,13.0,68,0.00,,,0.00,weatherlink.com 1.10,2013-02-26 03:26:00,
2013-02-25 20:41:00,33.2,26.0,29.94,SE,137,9.0,14.0,75,0.00,,,0.00,weatherlink.com 1.10,2013-02-26 03:41:00,
2013-02-25 20:56:00,32.9,26.0,29.94,South,169,4.0,11.0,76,0.00,,,0.00,weatherlink.com 1.10,2013-02-26 03:56:00,
2013-02-25 21:11:00,32.7,26.0,29.94,SSE,150,2.0,6.0,77,0.00,,,0.00,weatherlink.com 1.10,2013-02-26 04:11:00,
2013-02-25 21:26:00,31.9,26.0,29.95,SSW,196,1.0,3.0,78,0.00,,,0.00,weatherlink.com 1.10,2013-02-26 04:26:00,
2013-02-25 21:41:00,31.5,25.0,29.95,South,171,0.0,2.0,78,0.00,,,0.00,weatherlink.com 1.10,2013-02-26 04:41:00,
2013-02-25 21:56:00,31.5,26.0,29.95,SSW,206,0.0,4.0,79,0.00,,,0.00,weatherlink.com 1.10,2013-02-26 04:56:00,
2013-02-25 22:11:00,31.4,26.0,29.96,North,5,1.0,4.0,81,0.00,,,0.00,weatherlink.com 1.10,2013-02-26 05:11:00,
2013-02-25 22:26:00,31.7,26.0,29.97,NNE,13,4.0,4.0,80,0.00,,,0.00,weatherlink.com 1.10,2013-02-26 05:26:00,
2013-02-25 22:41:00,31.5,26.0,29.98,NW,322,0.0,7.0,79,0.00,,,0.00,weatherlink.com 1.10,2013-02-26 05:41:00,
2013-02-25 22:56:00,31.1,26.0,29.98,SE,129,0.0,3.0,81,0.00,,,0.00,weatherlink.com 1.10,2013-02-26 05:56:00,
2013-02-25 23:11:00,31.7,26.0,29.98,East,101,3.0,3.0,78,0.00,,,0.00,weatherlink.com 1.10,2013-02-26 06:11:00,
2013-02-25 23:26:00,31.8,26.0,29.98,SW,223,0.0,2.0,78,0.00,,,0.00,weatherlink.com 1.10,2013-02-26 06:26:00,
2013-02-25 23:41:00,30.6,25.0,29.99,East,79,2.0,8.0,80,0.00,,,0.00,weatherlink.com 1.10,2013-02-26 06:41:00,
2013-02-25 23:56:00,30.1,25.0,29.98,South,180,0.0,2.0,81,0.00,,,0.00,weatherlink.com 1.10,2013-02-26 06:56:00,